createdAt,value
2023-05-14T00:00:15.969Z,101998.09
2023-05-14T00:03:19.471Z,102003.34
2023-05-14T00:06:23.011Z,102003.47
2023-05-14T00:09:26.513Z,102006.31
2023-05-14T00:12:30.234Z,101995.84
2023-05-14T00:15:35.184Z,102000.28
2023-05-14T00:18:38.783Z,101998.66
2023-05-14T00:21:42.299Z,102003.53
2023-05-14T00:24:45.976Z,101997.47
2023-05-14T00:27:49.478Z,102004.81
2023-05-14T00:30:54.358Z,101994.47
2023-05-14T00:33:57.902Z,101992.84
2023-05-14T00:37:01.510Z,101994.72
2023-05-14T00:40:06.909Z,101993.81
2023-05-14T00:43:10.887Z,101998.25
2023-05-14T00:46:17.322Z,101991.19
2023-05-14T00:49:21.376Z,101985.97
2023-05-14T00:52:25.152Z,101985.84
2023-05-14T00:55:31.630Z,101997.16
2023-05-14T00:58:35.461Z,101994.56
2023-05-14T01:01:41.094Z,101986.69
2023-05-14T01:04:44.751Z,101991.91
2023-05-14T01:08:00.262Z,101986.72
2023-05-14T01:11:12.573Z,101987.63
2023-05-14T01:14:31.832Z,101985.41
2023-05-14T01:17:50.025Z,101989.06
2023-05-14T01:20:55.008Z,101989.88
2023-05-14T01:23:59.882Z,101986.34
2023-05-14T01:27:11.716Z,101980.31
2023-05-14T01:30:23.110Z,101983.00
2023-05-14T01:33:30.489Z,101980.56
2023-05-14T01:36:34.689Z,101979.47
2023-05-14T01:39:40.816Z,101974.06
2023-05-14T01:42:45.818Z,101974.22
2023-05-14T01:45:49.293Z,101970.72
2023-05-14T01:48:52.835Z,101969.78
2023-05-14T01:51:56.319Z,101963.75
2023-05-14T01:55:01.320Z,101960.53
2023-05-14T01:58:04.788Z,101958.97
2023-05-14T02:01:08.418Z,101957.84
2023-05-14T02:04:11.934Z,101954.56
2023-05-14T02:07:15.526Z,101953.81
2023-05-14T02:10:20.800Z,101952.03
2023-05-14T02:13:24.558Z,101952.75
2023-05-14T02:16:28.155Z,101941.66
2023-05-14T02:19:32.071Z,101942.50
2023-05-14T02:22:35.585Z,101941.50
2023-05-14T02:25:40.637Z,101933.69
2023-05-14T02:28:44.432Z,101934.56
2023-05-14T02:31:49.114Z,101930.38
2023-05-14T02:34:52.684Z,101928.75
2023-05-14T02:37:56.317Z,101932.22
2023-05-14T02:41:01.196Z,101935.56
2023-05-14T02:44:04.812Z,101935.63
2023-05-14T02:47:08.496Z,101933.91
2023-05-14T02:50:12.396Z,101939.97
2023-05-14T02:53:15.965Z,101937.28
2023-05-14T02:56:21.154Z,101936.50
2023-05-14T02:59:25.814Z,101936.53
2023-05-14T03:02:29.874Z,101933.03
2023-05-14T03:05:33.992Z,101935.72
2023-05-14T03:08:37.530Z,101927.81
2023-05-14T03:11:42.489Z,101938.28
2023-05-14T03:14:45.992Z,101930.44
2023-05-14T03:17:49.496Z,101937.25
2023-05-14T03:20:53.121Z,101923.06
2023-05-14T03:23:56.835Z,101921.28
2023-05-14T03:27:01.768Z,101929.09
2023-05-14T03:30:06.544Z,101929.97
2023-05-14T03:33:10.155Z,101924.63
2023-05-14T03:36:13.629Z,101920.97
2023-05-14T03:39:19.761Z,101914.69
2023-05-14T03:42:24.677Z,101923.44
2023-05-14T03:45:28.760Z,101918.97
2023-05-14T03:48:32.340Z,101921.50
2023-05-14T03:51:35.964Z,101917.97
2023-05-14T03:54:41.351Z,101922.28
2023-05-14T03:57:46.208Z,101923.94
2023-05-14T04:00:49.998Z,101924.00
2023-05-14T04:03:53.575Z,101918.63
2023-05-14T04:06:57.201Z,101925.44
2023-05-14T04:10:03.980Z,101922.06
2023-05-14T04:13:09.346Z,101923.28
2023-05-14T04:16:12.878Z,101922.34
2023-05-14T04:19:16.552Z,101923.06
2023-05-14T04:22:20.427Z,101921.31
2023-05-14T04:25:24.177Z,101917.69
2023-05-14T04:28:29.078Z,101918.28
2023-05-14T04:31:32.930Z,101919.09
2023-05-14T04:34:36.450Z,101910.88
2023-05-14T04:37:40.522Z,101918.78
2023-05-14T04:40:44.116Z,101918.72
2023-05-14T04:43:51.583Z,101919.69
2023-05-14T04:46:55.222Z,101920.75
2023-05-14T04:49:58.994Z,101918.09
2023-05-14T04:53:03.325Z,101916.72
2023-05-14T04:56:07.502Z,101925.09
2023-05-14T04:59:12.610Z,101924.72
2023-05-14T05:02:16.224Z,101931.91
2023-05-14T05:05:19.856Z,101936.97
2023-05-14T05:08:23.433Z,101936.72
2023-05-14T05:11:26.888Z,101934.72
2023-05-14T05:14:31.831Z,101937.84
2023-05-14T05:17:35.416Z,101938.72
2023-05-14T05:20:38.981Z,101934.63
2023-05-14T05:23:42.440Z,101936.16
2023-05-14T05:26:46.197Z,101929.41
2023-05-14T05:29:51.103Z,101936.69
2023-05-14T05:32:57.073Z,101918.72
2023-05-14T05:36:00.625Z,101929.44
2023-05-14T05:39:04.330Z,101928.59
2023-05-14T05:42:09.181Z,101925.78
2023-05-14T05:45:15.881Z,101921.72
2023-05-14T05:48:19.386Z,101921.47
2023-05-14T05:51:22.980Z,101923.31
2023-05-14T05:54:27.252Z,101921.81
2023-05-14T05:57:30.800Z,101928.34
2023-05-14T06:00:35.845Z,101923.13
2023-05-14T06:03:39.476Z,101932.56
2023-05-14T06:06:43.124Z,101927.88
2023-05-14T06:09:46.645Z,101924.22
2023-05-14T06:12:50.175Z,101922.34
2023-05-14T06:15:55.395Z,101918.63
2023-05-14T06:18:59.018Z,101921.66
2023-05-14T06:22:03.001Z,101931.38
2023-05-14T06:25:07.466Z,101922.41
2023-05-14T06:28:11.300Z,101926.31
2023-05-14T06:31:16.179Z,101917.63
2023-05-14T06:34:19.704Z,101924.50
2023-05-14T06:37:23.217Z,101925.03
2023-05-14T06:40:26.829Z,101924.50
2023-05-14T06:43:30.388Z,101923.69
2023-05-14T06:46:35.408Z,101927.13
2023-05-14T06:49:39.089Z,101927.78
2023-05-14T06:52:43.718Z,101921.03
2023-05-14T06:55:49.145Z,101922.75
2023-05-14T06:58:52.644Z,101926.66
2023-05-14T07:01:57.698Z,101924.06
2023-05-14T07:05:01.946Z,101920.53
2023-05-14T07:08:05.892Z,101916.00
2023-05-14T07:11:09.376Z,101920.28
2023-05-14T07:17:55.071Z,101912.03
2023-05-14T07:20:58.683Z,101907.59
2023-05-14T07:24:02.263Z,101908.69
2023-05-14T07:27:06.616Z,101901.47
2023-05-14T07:30:11.094Z,101902.13
2023-05-14T07:33:16.023Z,101898.34
2023-05-14T07:36:19.799Z,101901.91
2023-05-14T07:39:23.924Z,101890.50
2023-05-14T07:42:35.830Z,101882.00
2023-05-14T07:45:40.652Z,101892.91
2023-05-14T07:48:45.664Z,101895.34
2023-05-14T07:51:49.175Z,101891.28
2023-05-14T07:54:53.233Z,101890.69
2023-05-14T07:57:56.866Z,101889.66
2023-05-14T08:01:01.423Z,101882.78
2023-05-14T08:04:06.700Z,101883.56
2023-05-14T08:07:11.136Z,101881.25
2023-05-14T08:10:14.816Z,101869.28
2023-05-14T08:13:18.357Z,101865.13
2023-05-14T08:16:21.956Z,101862.91
2023-05-14T08:19:27.888Z,101864.72
2023-05-14T08:22:31.406Z,101866.72
2023-05-14T08:25:35.251Z,101868.22
2023-05-14T08:28:39.068Z,101866.47
2023-05-14T08:31:42.793Z,101870.72
2023-05-14T08:34:47.763Z,101864.66
2023-05-14T08:37:52.218Z,101859.69
2023-05-14T08:40:59.044Z,101857.22
2023-05-14T08:44:09.963Z,101855.53
2023-05-14T08:47:19.074Z,101851.59
2023-05-14T08:50:25.177Z,101846.03
2023-05-14T08:53:29.356Z,101844.28
2023-05-14T08:56:34.527Z,101850.25
2023-05-14T08:59:38.699Z,101843.28
2023-05-14T09:02:43.436Z,101840.50
2023-05-14T09:05:52.599Z,101835.91
2023-05-14T09:08:57.283Z,101836.03
2023-05-14T09:12:02.580Z,101832.09
2023-05-14T09:15:08.064Z,101829.25
2023-05-14T09:18:11.889Z,101828.28
2023-05-14T09:21:17.425Z,101832.31
2023-05-14T09:24:22.668Z,101835.28
2023-05-14T09:27:27.827Z,101828.88
2023-05-14T09:30:31.820Z,101815.81
2023-05-14T09:33:35.795Z,101823.91
2023-05-14T09:36:40.764Z,101816.66
2023-05-14T09:39:44.446Z,101817.78
2023-05-14T09:42:49.481Z,101817.72
2023-05-14T09:45:53.253Z,101811.63
2023-05-14T09:48:57.681Z,101808.31
2023-05-14T09:52:03.763Z,101804.84
2023-05-14T09:55:08.735Z,101806.22
2023-05-14T09:58:14.560Z,101792.09
2023-05-14T10:01:21.224Z,101800.75
2023-05-14T10:04:25.976Z,101794.94
2023-05-14T10:07:38.106Z,101788.88
2023-05-14T10:10:42.325Z,101785.22
2023-05-14T10:13:56.107Z,101787.25
2023-05-14T10:17:02.937Z,101789.09
2023-05-14T10:20:12.054Z,101789.44
2023-05-14T10:23:17.279Z,101788.19
2023-05-14T10:26:23.809Z,101782.38
2023-05-14T10:29:35.186Z,101788.44
2023-05-14T10:32:41.907Z,101791.38
2023-05-14T10:36:02.102Z,101790.63
2023-05-14T10:39:09.982Z,101780.81
2023-05-14T10:42:14.986Z,101783.59
2023-05-14T10:45:30.513Z,101777.38
2023-05-14T10:48:35.801Z,101777.41
2023-05-14T10:51:39.411Z,101763.28
2023-05-14T10:54:51.881Z,101759.16
2023-05-14T10:57:55.380Z,101757.56
2023-05-14T11:00:59.865Z,101755.63
2023-05-14T11:04:06.030Z,101753.75
2023-05-14T11:07:10.069Z,101744.47
2023-05-14T11:10:18.011Z,101747.63
2023-05-14T11:13:22.401Z,101730.84
2023-05-14T11:16:30.832Z,101734.31
2023-05-14T11:19:34.387Z,101730.88
2023-05-14T11:22:40.262Z,101727.16
2023-05-14T11:25:45.263Z,101720.88
2023-05-14T11:28:49.052Z,101720.16
2023-05-14T11:31:52.746Z,101723.19
2023-05-14T11:34:56.466Z,101717.25
2023-05-14T11:38:00.049Z,101708.69
2023-05-14T11:41:05.755Z,101711.06
2023-05-14T11:44:11.864Z,101705.50
2023-05-14T11:47:15.720Z,101710.53
2023-05-14T11:50:19.224Z,101712.75
2023-05-14T11:53:28.085Z,101703.09
2023-05-14T11:56:32.960Z,101708.59
2023-05-14T11:59:36.737Z,101702.91
2023-05-14T12:02:40.575Z,101702.03
2023-05-14T12:05:58.160Z,101696.16
2023-05-14T12:09:01.743Z,101693.06
2023-05-14T12:12:12.941Z,101681.94
2023-05-14T12:15:18.215Z,101681.50
2023-05-14T12:18:25.068Z,101676.84
2023-05-14T12:21:31.524Z,101683.84
2023-05-14T12:24:35.070Z,101672.19
2023-05-14T12:27:40.026Z,101658.34
2023-05-14T12:30:43.532Z,101665.59
2023-05-14T12:33:46.990Z,101656.72
2023-05-14T12:36:50.538Z,101657.13
2023-05-14T12:39:54.217Z,101661.97
2023-05-14T12:42:59.118Z,101643.03
2023-05-14T12:46:02.675Z,101645.19
2023-05-14T12:49:06.969Z,101646.19
2023-05-14T12:55:17.177Z,101634.91
2023-05-14T12:58:22.264Z,101628.72
2023-05-14T13:01:26.157Z,101624.88
2023-05-14T13:04:30.045Z,101626.03
2023-05-14T13:07:33.712Z,101616.75
2023-05-14T13:10:37.411Z,101623.94
2023-05-14T13:13:42.347Z,101621.31
2023-05-14T13:16:45.969Z,101612.59
2023-05-14T13:19:49.503Z,101608.09
2023-05-14T13:22:52.985Z,101602.44
2023-05-14T13:25:56.596Z,101589.44
2023-05-14T13:29:01.543Z,101589.09
2023-05-14T13:32:05.811Z,101587.16
2023-05-14T13:35:10.363Z,101581.81
2023-05-14T13:38:14.320Z,101574.13
2023-05-14T13:41:17.801Z,101577.75
2023-05-14T13:44:22.737Z,101582.72
2023-05-14T13:47:29.853Z,101584.03
2023-05-14T13:50:33.385Z,101578.94
2023-05-14T13:53:36.900Z,101581.91
2023-05-14T13:56:40.569Z,101574.31
2023-05-14T13:59:47.166Z,101576.88
2023-05-14T14:02:50.721Z,101574.34
2023-05-14T14:05:55.131Z,101570.47
2023-05-14T14:08:58.595Z,101569.66
2023-05-14T14:12:02.212Z,101569.94
2023-05-14T14:15:09.168Z,101563.97
2023-05-14T14:18:12.773Z,101561.22
2023-05-14T14:21:18.505Z,101552.88
2023-05-14T14:24:22.417Z,101557.44
2023-05-14T14:27:28.357Z,101544.75
2023-05-14T14:30:34.675Z,101542.84
2023-05-14T14:33:38.297Z,101538.09
2023-05-14T14:36:41.844Z,101532.09
2023-05-14T14:39:45.408Z,101527.28
2023-05-14T14:42:48.868Z,101530.53
2023-05-14T14:45:53.790Z,101529.78
2023-05-14T14:48:57.308Z,101517.97
2023-05-14T14:52:00.890Z,101523.25
2023-05-14T14:55:04.614Z,101527.31
2023-05-14T14:58:08.244Z,101525.13
2023-05-14T15:01:13.198Z,101529.75
2023-05-14T15:04:16.815Z,101515.06
2023-05-14T15:07:22.206Z,101515.28
2023-05-14T15:10:25.961Z,101512.00
2023-05-14T15:13:29.498Z,101517.47
2023-05-14T15:16:34.532Z,101510.19
2023-05-14T15:19:38.152Z,101514.59
2023-05-14T15:22:41.712Z,101504.09
2023-05-14T15:25:45.492Z,101512.88
2023-05-14T15:28:49.042Z,101503.34
2023-05-14T15:31:54.012Z,101502.78
2023-05-14T15:34:57.713Z,101497.28
2023-05-14T15:38:01.200Z,101485.72
2023-05-14T15:41:04.830Z,101491.75
2023-05-14T15:44:08.642Z,101489.34
2023-05-14T15:47:13.571Z,101489.91
2023-05-14T15:50:17.127Z,101487.72
2023-05-14T15:53:20.863Z,101492.56
2023-05-14T15:56:24.378Z,101497.44
2023-05-14T15:59:27.884Z,101502.38
2023-05-14T16:02:33.410Z,101499.69
2023-05-14T16:05:37.407Z,101508.13
2023-05-14T16:08:40.893Z,101514.78
2023-05-14T16:11:44.371Z,101509.97
2023-05-14T16:14:47.932Z,101511.03
2023-05-14T16:17:52.845Z,101505.88
2023-05-14T16:20:56.577Z,101505.38
2023-05-14T16:24:00.134Z,101513.56
2023-05-14T16:27:03.678Z,101521.25
2023-05-14T16:30:09.191Z,101502.69
2023-05-14T16:33:14.098Z,101514.00
2023-05-14T16:36:17.730Z,101514.19
2023-05-14T16:39:21.896Z,101510.44
2023-05-14T16:42:26.270Z,101510.06
2023-05-14T16:45:29.966Z,101504.59
2023-05-14T16:48:34.888Z,101505.94
2023-05-14T16:51:43.001Z,101502.81
2023-05-14T16:54:46.660Z,101508.38
2023-05-14T16:57:50.322Z,101499.28
2023-05-14T17:00:53.947Z,101502.81
2023-05-14T17:08:02.241Z,101496.81
2023-05-14T17:11:06.281Z,101495.66
2023-05-14T17:14:12.225Z,101494.38
2023-05-14T17:17:20.870Z,101493.44
2023-05-14T17:20:27.242Z,101493.03
2023-05-14T17:23:30.801Z,101490.53
2023-05-14T17:26:34.550Z,101489.53
2023-05-14T17:29:40.296Z,101489.63
2023-05-14T17:32:43.910Z,101486.44
2023-05-14T17:35:49.949Z,101477.53
2023-05-14T17:38:53.635Z,101479.56
2023-05-14T17:41:57.344Z,101482.34
2023-05-14T17:45:03.226Z,101492.66
2023-05-14T17:48:09.544Z,101500.38
2023-05-14T17:51:14.681Z,101497.03
2023-05-14T17:54:18.340Z,101500.63
2023-05-14T17:57:22.846Z,101490.19
2023-05-14T18:00:26.549Z,101490.59
2023-05-14T18:03:30.465Z,101496.44
2023-05-14T18:06:36.771Z,101491.13
2023-05-14T18:09:40.270Z,101498.16
2023-05-14T18:12:43.793Z,101496.75
2023-05-14T18:15:48.390Z,101499.66
2023-05-14T18:18:52.078Z,101499.63
2023-05-14T18:21:57.005Z,101505.59
2023-05-14T18:25:00.662Z,101496.59
2023-05-14T18:28:04.459Z,101503.97
2023-05-14T18:31:08.044Z,101502.19
2023-05-14T18:34:11.811Z,101501.38
2023-05-14T18:37:16.769Z,101502.72
2023-05-14T18:40:20.772Z,101493.81
2023-05-14T18:43:24.289Z,101492.09
2023-05-14T18:46:27.838Z,101487.72
2023-05-14T18:49:31.430Z,101486.47
2023-05-14T18:52:38.072Z,101494.41
2023-05-14T18:55:41.663Z,101493.41
2023-05-14T18:58:45.269Z,101498.91
2023-05-14T19:01:48.963Z,101505.34
2023-05-14T19:04:53.275Z,101501.19
2023-05-14T19:07:58.348Z,101499.25
2023-05-14T19:11:01.909Z,101502.66
2023-05-14T19:14:05.509Z,101497.25
2023-05-14T19:17:09.382Z,101499.81
2023-05-14T19:20:13.703Z,101499.09
2023-05-14T19:23:18.596Z,101500.31
2023-05-14T19:26:22.866Z,101503.88
2023-05-14T19:29:26.317Z,101505.97
2023-05-14T19:32:29.903Z,101500.97
2023-05-14T19:35:33.397Z,101502.66
2023-05-14T19:38:38.374Z,101507.16
2023-05-14T19:41:41.818Z,101508.00
2023-05-14T19:44:45.706Z,101512.31
2023-05-14T19:47:49.253Z,101507.50
2023-05-14T19:50:53.089Z,101512.59
2023-05-14T19:53:57.970Z,101511.78
2023-05-14T19:57:01.740Z,101513.59
2023-05-14T20:00:09.126Z,101509.44
2023-05-14T20:03:13.756Z,101510.22
2023-05-14T20:06:18.548Z,101503.09
2023-05-14T20:09:23.621Z,101505.59
2023-05-14T20:12:27.807Z,101515.41
2023-05-14T20:15:34.581Z,101501.44
2023-05-14T20:18:39.260Z,101506.56
2023-05-14T20:21:42.755Z,101508.97
2023-05-14T20:24:47.707Z,101517.28
2023-05-14T20:27:53.540Z,101516.16
2023-05-14T20:30:58.993Z,101514.72
2023-05-14T20:34:02.612Z,101511.78
2023-05-14T20:37:08.123Z,101509.91
2023-05-14T20:40:14.215Z,101501.91
2023-05-14T20:43:17.870Z,101505.72
2023-05-14T20:46:21.703Z,101499.09
2023-05-14T20:49:25.570Z,101504.28
2023-05-14T20:52:29.262Z,101501.56
2023-05-14T20:55:34.319Z,101493.94
2023-05-14T20:58:37.905Z,101494.22
2023-05-14T21:01:42.676Z,101493.94
2023-05-14T21:04:46.390Z,101498.19
2023-05-14T21:07:50.013Z,101489.06
2023-05-14T21:10:55.186Z,101482.97
2023-05-14T21:13:59.502Z,101483.94
2023-05-14T21:17:03.598Z,101473.34
2023-05-14T21:20:08.864Z,101470.81
2023-05-14T21:23:12.794Z,101472.63
2023-05-14T21:26:19.219Z,101475.44
2023-05-14T21:29:23.169Z,101465.75
2023-05-14T21:32:26.748Z,101465.13
2023-05-14T21:35:30.401Z,101468.72
2023-05-14T21:38:33.913Z,101469.56
2023-05-14T21:41:39.142Z,101459.31
2023-05-14T21:44:42.601Z,101456.97
2023-05-14T21:47:46.328Z,101458.13
2023-05-14T21:50:49.901Z,101459.09
2023-05-14T21:53:53.586Z,101452.22
2023-05-14T21:56:58.637Z,101460.97
2023-05-14T22:00:02.119Z,101457.13
2023-05-14T22:03:05.830Z,101458.84
2023-05-14T22:06:09.671Z,101450.38
2023-05-14T22:09:13.207Z,101451.41
2023-05-14T22:12:18.095Z,101454.50
2023-05-14T22:15:21.895Z,101450.16
2023-05-14T22:18:26.051Z,101450.19
2023-05-14T22:21:30.378Z,101440.13
2023-05-14T22:24:33.865Z,101448.44
2023-05-14T22:27:38.896Z,101440.13
2023-05-14T22:30:42.560Z,101440.75
2023-05-14T22:33:46.038Z,101440.28
2023-05-14T22:36:49.612Z,101433.34
2023-05-14T22:39:53.129Z,101431.38
2023-05-14T22:42:58.155Z,101423.84
2023-05-14T22:46:01.877Z,101417.75
2023-05-14T22:49:05.980Z,101412.66
2023-05-14T22:52:09.999Z,101411.69
2023-05-14T22:55:13.693Z,101403.22
2023-05-14T22:58:18.715Z,101406.16
2023-05-14T23:01:22.321Z,101404.34
2023-05-14T23:04:26.246Z,101412.59
2023-05-14T23:07:29.997Z,101410.88
2023-05-14T23:10:33.747Z,101412.34
2023-05-14T23:13:38.899Z,101402.81
2023-05-14T23:16:42.386Z,101401.56
2023-05-14T23:19:45.976Z,101406.16
2023-05-14T23:22:49.631Z,101401.31
2023-05-14T23:25:53.569Z,101392.06
2023-05-14T23:28:58.443Z,101393.97
2023-05-14T23:32:02.137Z,101388.13
2023-05-14T23:35:06.760Z,101382.59
2023-05-14T23:38:10.532Z,101384.41
2023-05-14T23:41:14.028Z,101386.53
2023-05-14T23:44:18.999Z,101374.44
2023-05-14T23:47:22.565Z,101372.69
2023-05-14T23:50:26.493Z,101365.13
2023-05-14T23:53:29.923Z,101363.44
2023-05-14T23:56:33.811Z,101358.72
2023-05-14T23:59:40.136Z,101359.56
